Terminal Aerodrome Forecast
Issued by NWS Charleston, WV

Current Version | Previous Version | Graphics & Text | Print | Product List | Glossary On
Versions: 1 2 3 4 5 6 7 8 9 10 11 12 13 14 15 16 17 18 19 20 21 22 23 24
000
FTUS41 KRLX 280900 AAA
TAFBKW
TAF AMD
KBKW 280905Z 2809/2906 26009KT P6SM FEW024
     FM281400 29011G18KT P6SM BKN035
     FM282000 31012G19KT P6SM VCSH BKN035
     FM282300 32008KT P6SM BKN050=

USA.gov is the U.S. government's official web portal to all federal, state and local government web resources and services.